sensor_id;sensor_type;location;lat;lon;timestamp;P1;durP1;ratioP1;P2;durP2;ratioP2
52432;SDS011;38352;53.244;6.594;2023-11-21T00:00:10;23.75;;;8.07;;
52432;SDS011;38352;53.244;6.594;2023-11-21T00:02:40;27.55;;;7.43;;
52432;SDS011;38352;53.244;6.594;2023-11-21T00:05:10;21.70;;;7.22;;
52432;SDS011;38352;53.244;6.594;2023-11-21T00:07:42;26.35;;;6.88;;
52432;SDS011;38352;53.244;6.594;2023-11-21T00:10:14;18.20;;;6.40;;
52432;SDS011;38352;53.244;6.594;2023-11-21T00:12:41;28.00;;;7.72;;
52432;SDS011;38352;53.244;6.594;2023-11-21T00:15:08;16.50;;;6.40;;
52432;SDS011;38352;53.244;6.594;2023-11-21T00:17:39;27.63;;;7.00;;
52432;SDS011;38352;53.244;6.594;2023-11-21T00:20:06;23.77;;;7.55;;
52432;SDS011;38352;53.244;6.594;2023-11-21T00:22:35;23.13;;;6.63;;
52432;SDS011;38352;53.244;6.594;2023-11-21T00:25:04;27.40;;;6.65;;
52432;SDS011;38352;53.244;6.594;2023-11-21T00:27:30;27.13;;;7.05;;
52432;SDS011;38352;53.244;6.594;2023-11-21T00:29:56;20.20;;;6.38;;
52432;SDS011;38352;53.244;6.594;2023-11-21T00:32:24;24.25;;;6.75;;
52432;SDS011;38352;53.244;6.594;2023-11-21T00:34:50;26.60;;;7.50;;
52432;SDS011;38352;53.244;6.594;2023-11-21T00:37:20;28.20;;;7.78;;
52432;SDS011;38352;53.244;6.594;2023-11-21T00:39:47;28.30;;;7.65;;
52432;SDS011;38352;53.244;6.594;2023-11-21T00:42:13;21.77;;;7.18;;
52432;SDS011;38352;53.244;6.594;2023-11-21T00:44:39;25.67;;;7.78;;
52432;SDS011;38352;53.244;6.594;2023-11-21T00:47:05;27.10;;;7.50;;
52432;SDS011;38352;53.244;6.594;2023-11-21T00:49:31;23.83;;;7.65;;
52432;SDS011;38352;53.244;6.594;2023-11-21T00:52:03;25.92;;;7.82;;
52432;SDS011;38352;53.244;6.594;2023-11-21T00:54:30;21.08;;;7.72;;
52432;SDS011;38352;53.244;6.594;2023-11-21T00:56:57;32.03;;;8.73;;
52432;SDS011;38352;53.244;6.594;2023-11-21T00:59:24;22.80;;;8.43;;
52432;SDS011;38352;53.244;6.594;2023-11-21T01:01:50;21.30;;;7.38;;
52432;SDS011;38352;53.244;6.594;2023-11-21T01:04:16;26.42;;;8.23;;
52432;SDS011;38352;53.244;6.594;2023-11-21T01:06:52;26.75;;;8.70;;
52432;SDS011;38352;53.244;6.594;2023-11-21T01:09:18;29.08;;;8.82;;
52432;SDS011;38352;53.244;6.594;2023-11-21T01:11:45;26.02;;;8.25;;
52432;SDS011;38352;53.244;6.594;2023-11-21T01:14:12;26.98;;;9.60;;
52432;SDS011;38352;53.244;6.594;2023-11-21T01:16:40;27.77;;;9.10;;
52432;SDS011;38352;53.244;6.594;2023-11-21T01:19:06;27.13;;;8.27;;
52432;SDS011;38352;53.244;6.594;2023-11-21T01:21:38;26.13;;;9.00;;
52432;SDS011;38352;53.244;6.594;2023-11-21T01:24:05;24.85;;;8.25;;
52432;SDS011;38352;53.244;6.594;2023-11-21T01:26:33;30.23;;;8.65;;
52432;SDS011;38352;53.244;6.594;2023-11-21T01:28:59;20.90;;;8.63;;
52432;SDS011;38352;53.244;6.594;2023-11-21T01:31:31;27.88;;;8.38;;
52432;SDS011;38352;53.244;6.594;2023-11-21T01:33:57;31.08;;;9.20;;
52432;SDS011;38352;53.244;6.594;2023-11-21T01:36:30;23.73;;;9.43;;
52432;SDS011;38352;53.244;6.594;2023-11-21T01:38:57;31.08;;;9.80;;
52432;SDS011;38352;53.244;6.594;2023-11-21T01:41:30;30.08;;;10.05;;
52432;SDS011;38352;53.244;6.594;2023-11-21T01:43:56;30.80;;;9.45;;
52432;SDS011;38352;53.244;6.594;2023-11-21T01:46:23;28.60;;;10.65;;
52432;SDS011;38352;53.244;6.594;2023-11-21T01:48:49;30.52;;;9.93;;
52432;SDS011;38352;53.244;6.594;2023-11-21T01:51:16;34.10;;;11.43;;
52432;SDS011;38352;53.244;6.594;2023-11-21T01:53:46;31.55;;;11.15;;
52432;SDS011;38352;53.244;6.594;2023-11-21T01:56:18;31.00;;;11.23;;
52432;SDS011;38352;53.244;6.594;2023-11-21T01:58:47;28.60;;;11.27;;
52432;SDS011;38352;53.244;6.594;2023-11-21T02:01:13;35.78;;;11.20;;
52432;SDS011;38352;53.244;6.594;2023-11-21T02:03:49;37.58;;;12.10;;
52432;SDS011;38352;53.244;6.594;2023-11-21T02:06:17;38.13;;;12.35;;
52432;SDS011;38352;53.244;6.594;2023-11-21T02:08:59;38.15;;;12.32;;
52432;SDS011;38352;53.244;6.594;2023-11-21T02:11:25;33.83;;;12.15;;
52432;SDS011;38352;53.244;6.594;2023-11-21T02:13:52;42.88;;;12.52;;
52432;SDS011;38352;53.244;6.594;2023-11-21T02:16:22;40.75;;;13.40;;
52432;SDS011;38352;53.244;6.594;2023-11-21T02:18:54;35.90;;;14.27;;
52432;SDS011;38352;53.244;6.594;2023-11-21T02:21:26;34.00;;;12.38;;
52432;SDS011;38352;53.244;6.594;2023-11-21T02:24:00;41.80;;;13.35;;
52432;SDS011;38352;53.244;6.594;2023-11-21T02:26:27;46.28;;;13.98;;
52432;SDS011;38352;53.244;6.594;2023-11-21T02:28:54;42.22;;;14.52;;
52432;SDS011;38352;53.244;6.594;2023-11-21T02:31:23;35.42;;;12.70;;
52432;SDS011;38352;53.244;6.594;2023-11-21T02:33:49;35.05;;;14.40;;
52432;SDS011;38352;53.244;6.594;2023-11-21T02:36:37;33.67;;;13.38;;
52432;SDS011;38352;53.244;6.594;2023-11-21T02:39:04;46.20;;;13.70;;
52432;SDS011;38352;53.244;6.594;2023-11-21T02:41:32;38.92;;;14.30;;
52432;SDS011;38352;53.244;6.594;2023-11-21T02:43:59;38.22;;;13.32;;
52432;SDS011;38352;53.244;6.594;2023-11-21T02:46:25;48.45;;;15.35;;
52432;SDS011;38352;53.244;6.594;2023-11-21T02:48:52;47.72;;;15.48;;
52432;SDS011;38352;53.244;6.594;2023-11-21T02:51:21;40.83;;;13.90;;
52432;SDS011;38352;53.244;6.594;2023-11-21T02:53:48;36.47;;;13.63;;
52432;SDS011;38352;53.244;6.594;2023-11-21T02:56:15;45.25;;;16.08;;
52432;SDS011;38352;53.244;6.594;2023-11-21T02:58:43;43.05;;;13.88;;
52432;SDS011;38352;53.244;6.594;2023-11-21T03:01:10;38.20;;;13.75;;
52432;SDS011;38352;53.244;6.594;2023-11-21T03:03:36;41.28;;;13.57;;
52432;SDS011;38352;53.244;6.594;2023-11-21T03:06:05;46.10;;;14.48;;
52432;SDS011;38352;53.244;6.594;2023-11-21T03:08:31;46.30;;;15.15;;
52432;SDS011;38352;53.244;6.594;2023-11-21T03:10:58;39.58;;;13.40;;
52432;SDS011;38352;53.244;6.594;2023-11-21T03:13:24;36.88;;;12.82;;
52432;SDS011;38352;53.244;6.594;2023-11-21T03:15:50;51.03;;;14.23;;
52432;SDS011;38352;53.244;6.594;2023-11-21T03:18:16;45.10;;;14.93;;
52432;SDS011;38352;53.244;6.594;2023-11-21T03:20:43;44.25;;;14.20;;
52432;SDS011;38352;53.244;6.594;2023-11-21T03:23:12;47.72;;;16.50;;
52432;SDS011;38352;53.244;6.594;2023-11-21T03:25:38;51.90;;;15.15;;
52432;SDS011;38352;53.244;6.594;2023-11-21T03:28:06;52.45;;;16.92;;
52432;SDS011;38352;53.244;6.594;2023-11-21T03:30:33;51.90;;;16.23;;
52432;SDS011;38352;53.244;6.594;2023-11-21T03:32:59;60.17;;;18.15;;
52432;SDS011;38352;53.244;6.594;2023-11-21T03:35:25;55.95;;;17.65;;
52432;SDS011;38352;53.244;6.594;2023-11-21T03:37:52;54.35;;;15.80;;
52432;SDS011;38352;53.244;6.594;2023-11-21T03:40:18;62.53;;;18.73;;
52432;SDS011;38352;53.244;6.594;2023-11-21T03:42:44;50.72;;;17.38;;
52432;SDS011;38352;53.244;6.594;2023-11-21T03:45:10;69.45;;;18.52;;
52432;SDS011;38352;53.244;6.594;2023-11-21T03:47:37;59.22;;;17.15;;
52432;SDS011;38352;53.244;6.594;2023-11-21T03:50:04;55.70;;;18.63;;
52432;SDS011;38352;53.244;6.594;2023-11-21T03:52:30;49.53;;;17.52;;
52432;SDS011;38352;53.244;6.594;2023-11-21T03:54:56;59.00;;;18.58;;
52432;SDS011;38352;53.244;6.594;2023-11-21T03:57:23;62.95;;;18.27;;
52432;SDS011;38352;53.244;6.594;2023-11-21T03:59:49;74.03;;;20.27;;
52432;SDS011;38352;53.244;6.594;2023-11-21T04:02:15;77.30;;;22.40;;
52432;SDS011;38352;53.244;6.594;2023-11-21T04:04:42;77.60;;;22.05;;
52432;SDS011;38352;53.244;6.594;2023-11-21T04:07:09;96.05;;;24.48;;
52432;SDS011;38352;53.244;6.594;2023-11-21T04:09:36;105.90;;;24.52;;
52432;SDS011;38352;53.244;6.594;2023-11-21T04:12:02;71.38;;;21.67;;
52432;SDS011;38352;53.244;6.594;2023-11-21T04:14:28;105.65;;;24.23;;
52432;SDS011;38352;53.244;6.594;2023-11-21T04:16:54;68.15;;;20.52;;
52432;SDS011;38352;53.244;6.594;2023-11-21T04:19:20;91.00;;;24.05;;
52432;SDS011;38352;53.244;6.594;2023-11-21T04:21:46;86.75;;;23.50;;
52432;SDS011;38352;53.244;6.594;2023-11-21T04:24:12;83.90;;;23.20;;
52432;SDS011;38352;53.244;6.594;2023-11-21T04:26:39;73.30;;;20.42;;
52432;SDS011;38352;53.244;6.594;2023-11-21T04:29:05;64.82;;;20.20;;
52432;SDS011;38352;53.244;6.594;2023-11-21T04:31:31;74.43;;;21.40;;
52432;SDS011;38352;53.244;6.594;2023-11-21T04:33:57;65.70;;;19.45;;
52432;SDS011;38352;53.244;6.594;2023-11-21T04:36:23;79.90;;;23.02;;
52432;SDS011;38352;53.244;6.594;2023-11-21T04:38:49;70.70;;;20.42;;
52432;SDS011;38352;53.244;6.594;2023-11-21T04:41:15;76.57;;;21.00;;
52432;SDS011;38352;53.244;6.594;2023-11-21T04:43:43;66.30;;;20.10;;
52432;SDS011;38352;53.244;6.594;2023-11-21T04:46:09;60.45;;;18.02;;
52432;SDS011;38352;53.244;6.594;2023-11-21T04:48:35;54.42;;;17.40;;
52432;SDS011;38352;53.244;6.594;2023-11-21T04:51:01;77.38;;;20.33;;
52432;SDS011;38352;53.244;6.594;2023-11-21T04:53:29;68.85;;;18.92;;
52432;SDS011;38352;53.244;6.594;2023-11-21T04:55:55;69.40;;;20.52;;
52432;SDS011;38352;53.244;6.594;2023-11-21T04:58:21;74.43;;;21.60;;
52432;SDS011;38352;53.244;6.594;2023-11-21T05:00:47;76.32;;;22.00;;
52432;SDS011;38352;53.244;6.594;2023-11-21T05:03:14;57.55;;;19.30;;
52432;SDS011;38352;53.244;6.594;2023-11-21T05:05:40;54.60;;;17.17;;
52432;SDS011;38352;53.244;6.594;2023-11-21T05:08:07;47.30;;;16.02;;
52432;SDS011;38352;53.244;6.594;2023-11-21T05:10:33;40.92;;;15.85;;
52432;SDS011;38352;53.244;6.594;2023-11-21T05:12:59;35.25;;;14.15;;
52432;SDS011;38352;53.244;6.594;2023-11-21T05:15:25;32.50;;;13.80;;
52432;SDS011;38352;53.244;6.594;2023-11-21T05:17:52;35.90;;;13.35;;
52432;SDS011;38352;53.244;6.594;2023-11-21T05:20:19;38.60;;;14.95;;
52432;SDS011;38352;53.244;6.594;2023-11-21T05:22:49;33.70;;;13.20;;
52432;SDS011;38352;53.244;6.594;2023-11-21T05:25:15;39.80;;;14.80;;
52432;SDS011;38352;53.244;6.594;2023-11-21T05:27:45;33.28;;;14.25;;
52432;SDS011;38352;53.244;6.594;2023-11-21T05:30:13;48.85;;;15.15;;
52432;SDS011;38352;53.244;6.594;2023-11-21T05:32:39;35.25;;;13.65;;
52432;SDS011;38352;53.244;6.594;2023-11-21T05:35:07;37.05;;;14.18;;
52432;SDS011;38352;53.244;6.594;2023-11-21T05:37:39;36.30;;;13.85;;
52432;SDS011;38352;53.244;6.594;2023-11-21T05:40:06;40.42;;;15.23;;
52432;SDS011;38352;53.244;6.594;2023-11-21T05:42:33;37.85;;;15.52;;
52432;SDS011;38352;53.244;6.594;2023-11-21T05:44:59;44.58;;;16.42;;
52432;SDS011;38352;53.244;6.594;2023-11-21T05:47:38;39.35;;;16.60;;
52432;SDS011;38352;53.244;6.594;2023-11-21T05:50:05;42.03;;;16.25;;
52432;SDS011;38352;53.244;6.594;2023-11-21T05:52:34;40.63;;;16.02;;
52432;SDS011;38352;53.244;6.594;2023-11-21T05:55:01;41.78;;;17.58;;
52432;SDS011;38352;53.244;6.594;2023-11-21T05:57:27;45.85;;;17.13;;
52432;SDS011;38352;53.244;6.594;2023-11-21T05:59:53;49.55;;;16.42;;
52432;SDS011;38352;53.244;6.594;2023-11-21T06:02:19;61.70;;;19.15;;
52432;SDS011;38352;53.244;6.594;2023-11-21T06:04:46;56.42;;;20.13;;
52432;SDS011;38352;53.244;6.594;2023-11-21T06:07:12;58.78;;;20.50;;
52432;SDS011;38352;53.244;6.594;2023-11-21T06:09:38;65.22;;;22.50;;
52432;SDS011;38352;53.244;6.594;2023-11-21T06:12:07;61.05;;;21.35;;
52432;SDS011;38352;53.244;6.594;2023-11-21T06:14:33;58.28;;;19.98;;
52432;SDS011;38352;53.244;6.594;2023-11-21T06:17:00;56.08;;;20.48;;
52432;SDS011;38352;53.244;6.594;2023-11-21T06:19:26;50.92;;;18.33;;
52432;SDS011;38352;53.244;6.594;2023-11-21T06:21:52;47.33;;;18.55;;
52432;SDS011;38352;53.244;6.594;2023-11-21T06:24:18;46.10;;;17.65;;
52432;SDS011;38352;53.244;6.594;2023-11-21T06:26:46;43.42;;;17.85;;
52432;SDS011;38352;53.244;6.594;2023-11-21T06:29:13;42.88;;;16.45;;
52432;SDS011;38352;53.244;6.594;2023-11-21T06:31:40;46.15;;;17.70;;
52432;SDS011;38352;53.244;6.594;2023-11-21T06:34:06;41.67;;;15.85;;
52432;SDS011;38352;53.244;6.594;2023-11-21T06:36:34;36.33;;;14.73;;
52432;SDS011;38352;53.244;6.594;2023-11-21T06:39:01;42.80;;;15.32;;
52432;SDS011;38352;53.244;6.594;2023-11-21T06:41:27;46.22;;;16.85;;
52432;SDS011;38352;53.244;6.594;2023-11-21T06:43:54;39.78;;;17.45;;
52432;SDS011;38352;53.244;6.594;2023-11-21T06:46:20;42.90;;;16.92;;
52432;SDS011;38352;53.244;6.594;2023-11-21T06:48:46;46.70;;;17.70;;
52432;SDS011;38352;53.244;6.594;2023-11-21T06:51:14;43.60;;;18.15;;
52432;SDS011;38352;53.244;6.594;2023-11-21T06:53:40;41.10;;;17.85;;
52432;SDS011;38352;53.244;6.594;2023-11-21T06:56:16;39.58;;;17.40;;
52432;SDS011;38352;53.244;6.594;2023-11-21T06:58:43;46.67;;;20.52;;
52432;SDS011;38352;53.244;6.594;2023-11-21T07:01:10;50.47;;;19.83;;
52432;SDS011;38352;53.244;6.594;2023-11-21T07:03:36;49.55;;;23.25;;
52432;SDS011;38352;53.244;6.594;2023-11-21T07:06:03;48.97;;;21.55;;
52432;SDS011;38352;53.244;6.594;2023-11-21T07:08:29;57.85;;;22.42;;
52432;SDS011;38352;53.244;6.594;2023-11-21T07:10:55;57.92;;;23.50;;
52432;SDS011;38352;53.244;6.594;2023-11-21T07:13:21;58.88;;;22.08;;
52432;SDS011;38352;53.244;6.594;2023-11-21T07:15:48;58.80;;;21.88;;
52432;SDS011;38352;53.244;6.594;2023-11-21T07:18:17;47.40;;;19.27;;
52432;SDS011;38352;53.244;6.594;2023-11-21T07:20:43;49.95;;;20.00;;
52432;SDS011;38352;53.244;6.594;2023-11-21T07:23:09;45.10;;;19.08;;
52432;SDS011;38352;53.244;6.594;2023-11-21T07:25:35;40.60;;;18.13;;
52432;SDS011;38352;53.244;6.594;2023-11-21T07:28:01;45.13;;;18.10;;
52432;SDS011;38352;53.244;6.594;2023-11-21T07:30:28;51.03;;;20.23;;
52432;SDS011;38352;53.244;6.594;2023-11-21T07:32:54;39.08;;;17.33;;
52432;SDS011;38352;53.244;6.594;2023-11-21T07:35:20;41.33;;;18.00;;
52432;SDS011;38352;53.244;6.594;2023-11-21T07:37:46;40.40;;;18.65;;
52432;SDS011;38352;53.244;6.594;2023-11-21T07:40:14;40.50;;;18.42;;
52432;SDS011;38352;53.244;6.594;2023-11-21T07:42:40;42.65;;;18.60;;
52432;SDS011;38352;53.244;6.594;2023-11-21T07:45:08;45.00;;;19.52;;
52432;SDS011;38352;53.244;6.594;2023-11-21T07:47:34;48.88;;;19.52;;
52432;SDS011;38352;53.244;6.594;2023-11-21T07:50:01;38.72;;;17.48;;
52432;SDS011;38352;53.244;6.594;2023-11-21T07:52:34;41.80;;;18.75;;
52432;SDS011;38352;53.244;6.594;2023-11-21T07:55:01;36.65;;;17.08;;
52432;SDS011;38352;53.244;6.594;2023-11-21T07:57:27;42.67;;;18.55;;
52432;SDS011;38352;53.244;6.594;2023-11-21T07:59:53;39.08;;;19.35;;
52432;SDS011;38352;53.244;6.594;2023-11-21T08:02:20;47.80;;;21.58;;
52432;SDS011;38352;53.244;6.594;2023-11-21T08:04:46;49.17;;;20.60;;
52432;SDS011;38352;53.244;6.594;2023-11-21T08:07:15;52.53;;;22.73;;
52432;SDS011;38352;53.244;6.594;2023-11-21T08:09:42;51.42;;;22.13;;
52432;SDS011;38352;53.244;6.594;2023-11-21T08:12:09;50.53;;;23.08;;
52432;SDS011;38352;53.244;6.594;2023-11-21T08:14:36;43.85;;;20.50;;
52432;SDS011;38352;53.244;6.594;2023-11-21T08:17:04;45.63;;;19.40;;
52432;SDS011;38352;53.244;6.594;2023-11-21T08:19:30;49.65;;;19.98;;
52432;SDS011;38352;53.244;6.594;2023-11-21T08:21:58;45.38;;;21.20;;
52432;SDS011;38352;53.244;6.594;2023-11-21T08:24:24;38.83;;;17.98;;
52432;SDS011;38352;53.244;6.594;2023-11-21T08:26:50;43.42;;;19.13;;
52432;SDS011;38352;53.244;6.594;2023-11-21T08:29:17;41.10;;;18.77;;
52432;SDS011;38352;53.244;6.594;2023-11-21T08:31:43;37.50;;;18.27;;
52432;SDS011;38352;53.244;6.594;2023-11-21T08:34:12;38.47;;;18.30;;
52432;SDS011;38352;53.244;6.594;2023-11-21T08:36:43;34.90;;;18.67;;
52432;SDS011;38352;53.244;6.594;2023-11-21T08:39:10;32.58;;;16.65;;
52432;SDS011;38352;53.244;6.594;2023-11-21T08:41:38;30.83;;;16.38;;
52432;SDS011;38352;53.244;6.594;2023-11-21T08:44:06;27.30;;;14.60;;
52432;SDS011;38352;53.244;6.594;2023-11-21T08:46:33;35.05;;;15.90;;
52432;SDS011;38352;53.244;6.594;2023-11-21T08:49:02;30.77;;;16.75;;
52432;SDS011;38352;53.244;6.594;2023-11-21T08:51:28;28.40;;;15.70;;
52432;SDS011;38352;53.244;6.594;2023-11-21T08:53:54;26.00;;;14.60;;
52432;SDS011;38352;53.244;6.594;2023-11-21T08:56:24;23.75;;;13.55;;
52432;SDS011;38352;53.244;6.594;2023-11-21T08:58:50;27.25;;;12.90;;
52432;SDS011;38352;53.244;6.594;2023-11-21T09:01:16;23.50;;;12.88;;
52432;SDS011;38352;53.244;6.594;2023-11-21T09:03:42;22.02;;;11.65;;
52432;SDS011;38352;53.244;6.594;2023-11-21T09:06:09;23.30;;;12.45;;
52432;SDS011;38352;53.244;6.594;2023-11-21T09:08:35;21.83;;;12.80;;
52432;SDS011;38352;53.244;6.594;2023-11-21T09:11:01;22.13;;;13.60;;
52432;SDS011;38352;53.244;6.594;2023-11-21T09:13:27;21.52;;;11.40;;
52432;SDS011;38352;53.244;6.594;2023-11-21T09:15:54;25.05;;;13.50;;
52432;SDS011;38352;53.244;6.594;2023-11-21T09:18:20;23.25;;;13.80;;
52432;SDS011;38352;53.244;6.594;2023-11-21T09:20:47;22.17;;;13.73;;
52432;SDS011;38352;53.244;6.594;2023-11-21T09:23:13;23.63;;;13.05;;
52432;SDS011;38352;53.244;6.594;2023-11-21T09:25:39;20.50;;;12.68;;
52432;SDS011;38352;53.244;6.594;2023-11-21T09:28:05;24.27;;;13.52;;
52432;SDS011;38352;53.244;6.594;2023-11-21T09:30:34;20.10;;;12.35;;
52432;SDS011;38352;53.244;6.594;2023-11-21T09:33:01;20.20;;;11.40;;
52432;SDS011;38352;53.244;6.594;2023-11-21T09:35:27;20.08;;;11.98;;
52432;SDS011;38352;53.244;6.594;2023-11-21T09:37:53;22.27;;;11.52;;
52432;SDS011;38352;53.244;6.594;2023-11-21T09:40:21;20.20;;;10.95;;
52432;SDS011;38352;53.244;6.594;2023-11-21T09:47:59;19.52;;;10.10;;
52432;SDS011;38352;53.244;6.594;2023-11-21T09:50:27;18.83;;;9.25;;
52432;SDS011;38352;53.244;6.594;2023-11-21T09:53:11;17.83;;;9.65;;
52432;SDS011;38352;53.244;6.594;2023-11-21T09:55:45;16.70;;;9.52;;
52432;SDS011;38352;53.244;6.594;2023-11-21T09:58:13;16.58;;;8.90;;
52432;SDS011;38352;53.244;6.594;2023-11-21T10:00:49;15.55;;;9.07;;
52432;SDS011;38352;53.244;6.594;2023-11-21T10:03:15;17.80;;;9.57;;
52432;SDS011;38352;53.244;6.594;2023-11-21T10:05:41;16.88;;;9.07;;
52432;SDS011;38352;53.244;6.594;2023-11-21T10:08:08;16.75;;;9.48;;
52432;SDS011;38352;53.244;6.594;2023-11-21T10:10:38;16.92;;;8.38;;
52432;SDS011;38352;53.244;6.594;2023-11-21T10:13:10;14.52;;;8.68;;
52432;SDS011;38352;53.244;6.594;2023-11-21T10:15:37;13.82;;;7.90;;
52432;SDS011;38352;53.244;6.594;2023-11-21T10:18:04;18.35;;;9.43;;
52432;SDS011;38352;53.244;6.594;2023-11-21T10:20:31;15.88;;;8.15;;
52432;SDS011;38352;53.244;6.594;2023-11-21T10:22:59;13.13;;;7.50;;
52432;SDS011;38352;53.244;6.594;2023-11-21T10:25:27;13.18;;;7.65;;
52432;SDS011;38352;53.244;6.594;2023-11-21T10:27:57;14.82;;;7.22;;
52432;SDS011;38352;53.244;6.594;2023-11-21T10:30:35;13.13;;;7.43;;
52432;SDS011;38352;53.244;6.594;2023-11-21T10:33:02;13.13;;;6.90;;
52432;SDS011;38352;53.244;6.594;2023-11-21T10:35:38;15.10;;;8.32;;
52432;SDS011;38352;53.244;6.594;2023-11-21T10:38:05;13.50;;;7.72;;
52432;SDS011;38352;53.244;6.594;2023-11-21T10:40:33;14.40;;;7.88;;
52432;SDS011;38352;53.244;6.594;2023-11-21T10:43:08;14.00;;;7.72;;
52432;SDS011;38352;53.244;6.594;2023-11-21T10:45:36;11.63;;;6.38;;
52432;SDS011;38352;53.244;6.594;2023-11-21T10:48:07;14.27;;;6.80;;
52432;SDS011;38352;53.244;6.594;2023-11-21T10:50:34;14.70;;;8.63;;
52432;SDS011;38352;53.244;6.594;2023-11-21T10:53:04;15.02;;;7.85;;
52432;SDS011;38352;53.244;6.594;2023-11-21T10:55:30;12.40;;;7.07;;
52432;SDS011;38352;53.244;6.594;2023-11-21T10:58:00;13.40;;;7.47;;
52432;SDS011;38352;53.244;6.594;2023-11-21T11:00:28;14.23;;;7.85;;
52432;SDS011;38352;53.244;6.594;2023-11-21T11:02:55;13.13;;;7.80;;
52432;SDS011;38352;53.244;6.594;2023-11-21T11:05:22;15.30;;;8.43;;
52432;SDS011;38352;53.244;6.594;2023-11-21T11:07:51;13.52;;;7.53;;
52432;SDS011;38352;53.244;6.594;2023-11-21T11:10:19;15.13;;;7.85;;
52432;SDS011;38352;53.244;6.594;2023-11-21T11:12:48;13.50;;;7.20;;
52432;SDS011;38352;53.244;6.594;2023-11-21T11:15:17;13.10;;;7.85;;
52432;SDS011;38352;53.244;6.594;2023-11-21T11:17:44;14.05;;;7.15;;
52432;SDS011;38352;53.244;6.594;2023-11-21T11:20:12;11.85;;;6.88;;
52432;SDS011;38352;53.244;6.594;2023-11-21T11:30:32;13.75;;;7.28;;
52432;SDS011;38352;53.244;6.594;2023-11-21T11:33:09;12.00;;;6.53;;
52432;SDS011;38352;53.244;6.594;2023-11-21T11:36:01;12.98;;;6.90;;
52432;SDS011;38352;53.244;6.594;2023-11-21T11:38:23;12.10;;;6.40;;
52432;SDS011;38352;53.244;6.594;2023-11-21T11:40:52;10.43;;;5.82;;
52432;SDS011;38352;53.244;6.594;2023-11-21T11:43:25;13.90;;;7.30;;
52432;SDS011;38352;53.244;6.594;2023-11-21T11:45:55;12.60;;;6.67;;
52432;SDS011;38352;53.244;6.594;2023-11-21T11:48:21;12.15;;;7.22;;
52432;SDS011;38352;53.244;6.594;2023-11-21T11:51:03;10.98;;;6.60;;
52432;SDS011;38352;53.244;6.594;2023-11-21T11:53:35;13.43;;;7.18;;
52432;SDS011;38352;53.244;6.594;2023-11-21T11:58:52;13.18;;;6.43;;
52432;SDS011;38352;53.244;6.594;2023-11-21T12:01:18;11.32;;;6.25;;
52432;SDS011;38352;53.244;6.594;2023-11-21T12:03:52;11.88;;;6.75;;
52432;SDS011;38352;53.244;6.594;2023-11-21T12:06:34;11.48;;;6.75;;
52432;SDS011;38352;53.244;6.594;2023-11-21T12:09:01;12.82;;;6.20;;
52432;SDS011;38352;53.244;6.594;2023-11-21T12:11:33;11.63;;;6.68;;
52432;SDS011;38352;53.244;6.594;2023-11-21T12:14:01;12.07;;;6.65;;
52432;SDS011;38352;53.244;6.594;2023-11-21T12:16:27;12.90;;;7.03;;
52432;SDS011;38352;53.244;6.594;2023-11-21T12:18:53;9.80;;;6.03;;
52432;SDS011;38352;53.244;6.594;2023-11-21T12:21:20;11.20;;;6.97;;
52432;SDS011;38352;53.244;6.594;2023-11-21T12:23:46;11.98;;;7.78;;
52432;SDS011;38352;53.244;6.594;2023-11-21T12:26:13;10.88;;;6.38;;
52432;SDS011;38352;53.244;6.594;2023-11-21T12:28:39;13.15;;;7.03;;
52432;SDS011;38352;53.244;6.594;2023-11-21T12:31:05;15.48;;;6.40;;
52432;SDS011;38352;53.244;6.594;2023-11-21T12:33:35;10.80;;;6.85;;
52432;SDS011;38352;53.244;6.594;2023-11-21T12:36:02;11.48;;;6.45;;
52432;SDS011;38352;53.244;6.594;2023-11-21T12:38:34;11.55;;;6.72;;
52432;SDS011;38352;53.244;6.594;2023-11-21T12:41:00;12.13;;;6.85;;
52432;SDS011;38352;53.244;6.594;2023-11-21T12:43:26;10.27;;;6.15;;
52432;SDS011;38352;53.244;6.594;2023-11-21T12:46:04;12.73;;;6.75;;
52432;SDS011;38352;53.244;6.594;2023-11-21T12:48:31;13.40;;;7.55;;
52432;SDS011;38352;53.244;6.594;2023-11-21T12:50:57;13.57;;;7.22;;
52432;SDS011;38352;53.244;6.594;2023-11-21T12:53:25;13.27;;;7.32;;
52432;SDS011;38352;53.244;6.594;2023-11-21T12:55:58;14.73;;;7.38;;
52432;SDS011;38352;53.244;6.594;2023-11-21T12:58:24;14.07;;;7.40;;
52432;SDS011;38352;53.244;6.594;2023-11-21T13:00:50;14.57;;;8.70;;
52432;SDS011;38352;53.244;6.594;2023-11-21T13:03:19;10.95;;;6.10;;
52432;SDS011;38352;53.244;6.594;2023-11-21T13:05:50;13.25;;;7.90;;
52432;SDS011;38352;53.244;6.594;2023-11-21T13:08:19;12.68;;;6.70;;
52432;SDS011;38352;53.244;6.594;2023-11-21T13:10:55;11.75;;;6.75;;
52432;SDS011;38352;53.244;6.594;2023-11-21T13:13:21;12.80;;;7.00;;
52432;SDS011;38352;53.244;6.594;2023-11-21T13:15:52;10.30;;;5.93;;
52432;SDS011;38352;53.244;6.594;2023-11-21T13:18:21;14.68;;;7.43;;
52432;SDS011;38352;53.244;6.594;2023-11-21T13:20:48;11.00;;;6.50;;
52432;SDS011;38352;53.244;6.594;2023-11-21T13:23:14;10.23;;;5.78;;
52432;SDS011;38352;53.244;6.594;2023-11-21T13:25:44;12.65;;;6.25;;
52432;SDS011;38352;53.244;6.594;2023-11-21T13:28:11;10.10;;;6.25;;
52432;SDS011;38352;53.244;6.594;2023-11-21T13:30:38;10.02;;;5.63;;
52432;SDS011;38352;53.244;6.594;2023-11-21T13:33:09;10.20;;;5.55;;
52432;SDS011;38352;53.244;6.594;2023-11-21T13:35:42;11.40;;;6.57;;
52432;SDS011;38352;53.244;6.594;2023-11-21T13:38:13;12.73;;;6.45;;
52432;SDS011;38352;53.244;6.594;2023-11-21T13:40:42;13.25;;;6.55;;
52432;SDS011;38352;53.244;6.594;2023-11-21T13:43:14;12.90;;;6.28;;
52432;SDS011;38352;53.244;6.594;2023-11-21T13:45:40;10.52;;;5.30;;
52432;SDS011;38352;53.244;6.594;2023-11-21T13:48:07;8.98;;;5.15;;
52432;SDS011;38352;53.244;6.594;2023-11-21T13:50:38;11.90;;;6.03;;
52432;SDS011;38352;53.244;6.594;2023-11-21T13:53:11;10.35;;;5.90;;
52432;SDS011;38352;53.244;6.594;2023-11-21T13:55:51;9.32;;;5.35;;
52432;SDS011;38352;53.244;6.594;2023-11-21T13:58:22;12.63;;;6.35;;
52432;SDS011;38352;53.244;6.594;2023-11-21T14:01:00;8.75;;;5.45;;
52432;SDS011;38352;53.244;6.594;2023-11-21T14:03:31;12.13;;;5.57;;
52432;SDS011;38352;53.244;6.594;2023-11-21T14:06:17;10.63;;;5.07;;
52432;SDS011;38352;53.244;6.594;2023-11-21T14:08:49;9.23;;;5.18;;
52432;SDS011;38352;53.244;6.594;2023-11-21T14:11:15;11.38;;;6.03;;
52432;SDS011;38352;53.244;6.594;2023-11-21T14:13:43;8.55;;;5.22;;
52432;SDS011;38352;53.244;6.594;2023-11-21T14:16:13;11.48;;;5.80;;
52432;SDS011;38352;53.244;6.594;2023-11-21T14:18:39;9.20;;;5.63;;
52432;SDS011;38352;53.244;6.594;2023-11-21T14:21:17;10.98;;;5.75;;
52432;SDS011;38352;53.244;6.594;2023-11-21T14:23:43;12.70;;;5.35;;
52432;SDS011;38352;53.244;6.594;2023-11-21T14:26:10;9.50;;;5.60;;
52432;SDS011;38352;53.244;6.594;2023-11-21T14:28:40;10.18;;;6.18;;
52432;SDS011;38352;53.244;6.594;2023-11-21T14:31:06;11.50;;;5.35;;
52432;SDS011;38352;53.244;6.594;2023-11-21T14:33:33;8.70;;;5.40;;
52432;SDS011;38352;53.244;6.594;2023-11-21T14:35:59;9.93;;;4.95;;
52432;SDS011;38352;53.244;6.594;2023-11-21T14:38:26;9.50;;;5.03;;
52432;SDS011;38352;53.244;6.594;2023-11-21T14:40:53;10.10;;;5.13;;
52432;SDS011;38352;53.244;6.594;2023-11-21T14:43:19;9.25;;;5.05;;
52432;SDS011;38352;53.244;6.594;2023-11-21T14:45:45;10.25;;;5.45;;
52432;SDS011;38352;53.244;6.594;2023-11-21T14:48:11;9.98;;;4.18;;